Time;durP1;ratioP1;P1;durP2;ratioP2;P2;SDS_P1;SDS_P2;PMS_P1;PMS_P2;Temp;Humidity;BMP_temperature;BMP_pressure;BME280_temperature;BME280_humidity;BME280_pressure;Samples;Min_cycle;Max_cycle;Signal;HPM_P1;HPM_P2
2021/04/13 00:02:37;;;;;;;12.93;7.38;;;;;;;7.40;71.97;97229.59;5024567;28;20037;-66
2021/04/13 00:05:11;;;;;;;12.25;6.97;;;;;;;7.37;71.68;97224.75;5026161;28;20056;-66
2021/04/13 00:07:41;;;;;;;12.75;7.05;;;;;;;7.33;72.38;97217.53;5024683;28;20105;-66
2021/04/13 00:10:33;;;;;;;12.45;6.90;;;;;;;7.31;72.22;97226.16;5025996;28;20119;-66
2021/04/13 00:13:00;;;;;;;8.60;6.18;;;;;;;7.24;72.76;97227.88;5024615;28;20120;-66
2021/04/13 00:15:38;;;;;;;12.95;6.47;;;;;;;7.20;72.95;97225.00;5025830;28;20078;-66
2021/04/13 00:18:04;;;;;;;8.10;5.65;;;;;;;6.79;71.76;97139.84;5025998;28;20080;-66
2021/04/13 00:20:38;;;;;;;11.85;6.20;;;;;;;7.43;71.45;97223.38;5025202;28;20076;-66
2021/04/13 00:23:04;;;;;;;12.57;6.55;;;;;;;6.96;70.67;97153.38;5026015;28;20053;-66
2021/04/13 00:25:37;;;;;;;14.02;7.35;;;;;;;6.90;70.76;97149.25;5025221;28;20485;-67
2021/04/13 00:28:03;;;;;;;14.60;8.20;;;;;;;6.91;70.95;97169.31;5025835;28;20610;-67
2021/04/13 00:30:46;;;;;;;13.30;7.20;;;;;;;7.19;70.67;97223.38;5024973;28;20493;-67
2021/04/13 00:33:23;;;;;;;13.35;7.57;;;;;;;6.40;71.15;97101.97;5025324;28;20033;-67
2021/04/13 00:36:15;;;;;;;10.50;7.65;;;;;;;7.05;71.32;97211.91;5023347;28;20029;-66
2021/04/13 00:38:49;;;;;;;13.25;7.30;;;;;;;7.03;71.75;97219.72;5025392;28;20049;-66
2021/04/13 00:41:24;;;;;;;14.48;8.43;;;;;;;7.02;73.84;97222.78;5025418;28;20037;-66
2021/04/13 00:43:57;;;;;;;18.30;8.55;;;;;;;7.01;73.13;97222.00;5025699;28;20033;-66
2021/04/13 00:46:48;;;;;;;11.55;6.95;;;;;;;6.92;72.53;97218.56;5023881;28;20460;-65
2021/04/13 00:49:17;;;;;;;12.27;7.18;;;;;;;6.92;72.46;97212.25;5025505;28;20126;-65
2021/04/13 00:51:51;;;;;;;10.82;7.50;;;;;;;6.30;72.76;97129.91;5025355;28;20407;-66
2021/04/13 00:54:32;;;;;;;12.80;7.30;;;;;;;6.55;72.99;97153.56;5025334;28;20075;-66
2021/04/13 00:57:03;;;;;;;15.70;8.68;;;;;;;6.13;74.21;97108.13;5024920;28;20034;-67
2021/04/13 00:59:30;;;;;;;19.67;8.77;;;;;;;6.09;74.10;97064.00;5023875;28;20068;-66
2021/04/13 01:02:05;;;;;;;14.90;8.70;;;;;;;6.99;73.11;97207.75;5024191;28;20508;-66
2021/04/13 01:04:57;;;;;;;15.25;8.75;;;;;;;7.17;71.83;97211.09;5023991;28;20037;-67
2021/04/13 01:07:44;;;;;;;17.67;7.65;;;;;;;7.11;72.50;97202.25;5025052;28;20048;-66
2021/04/13 01:10:30;;;;;;;14.43;6.90;;;;;;;6.70;73.41;97150.16;5024480;28;20120;-66
2021/04/13 01:13:29;;;;;;;11.80;7.10;;;;;;;7.05;72.45;97195.38;5025085;28;20030;-66
2021/04/13 01:15:54;;;;;;;12.63;6.15;;;;;;;6.97;73.27;97192.75;5039189;28;20556;-65
2021/04/13 01:18:29;;;;;;;13.32;6.75;;;;;;;7.03;72.91;97196.88;5025126;28;20131;-65
2021/04/13 01:21:10;;;;;;;10.85;6.50;;;;;;;6.38;73.38;97109.75;5024225;28;20249;-65
2021/04/13 01:23:48;;;;;;;15.43;7.13;;;;;;;6.42;73.45;97113.41;5023451;28;20033;-65
2021/04/13 01:26:14;;;;;;;11.27;7.18;;;;;;;6.98;73.06;97178.63;5024714;28;20057;-65
2021/04/13 01:28:42;;;;;;;11.63;7.05;;;;;;;6.71;71.37;97118.75;5025169;28;20603;-65
2021/04/13 01:31:41;;;;;;;16.20;7.18;;;;;;;6.91;71.94;97150.84;5024362;28;20052;-66
2021/04/13 01:34:13;;;;;;;10.30;7.10;;;;;;;7.18;72.23;97183.22;5008054;28;20053;-66
2021/04/13 01:36:44;;;;;;;15.30;7.90;;;;;;;7.13;71.66;97177.94;5004569;28;20528;-66
2021/04/13 01:39:15;;;;;;;14.40;8.07;;;;;;;7.14;71.70;97176.81;5002853;28;20050;-66
2021/04/13 01:41:56;;;;;;;18.30;9.18;;;;;;;7.02;71.67;97174.03;5019261;28;20067;-66
2021/04/13 01:44:45;;;;;;;14.73;8.02;;;;;;;7.02;72.73;97179.53;5004099;28;20096;-65
2021/04/13 01:47:14;;;;;;;14.88;7.75;;;;;;;6.84;72.43;97147.88;5004163;28;20419;-65
2021/04/13 01:49:46;;;;;;;12.80;7.70;;;;;;;6.60;76.04;97167.13;5004817;28;20044;-65
2021/04/13 01:52:18;;;;;;;17.42;7.70;;;;;;;5.46;77.10;97052.66;5004022;28;20068;-65
2021/04/13 01:54:44;;;;;;;22.30;9.03;;;;;;;6.25;78.12;97167.81;5004829;28;20030;-65
2021/04/13 01:57:09;;;;;;;16.10;7.38;;;;;;;6.46;77.43;97172.16;5004158;28;20061;-65
2021/04/13 02:00:08;;;;;;;25.75;8.98;;;;;;;6.51;76.89;97174.69;5019071;28;20520;-65
2021/04/13 02:02:40;;;;;;;13.07;6.85;;;;;;;6.50;76.80;97170.31;5004746;28;20049;-66
2021/04/13 02:05:12;;;;;;;12.57;7.40;;;;;;;6.50;76.65;97167.56;5004851;28;20562;-66
2021/04/13 02:10:46;;;;;;;;;;;;;;;6.46;75.71;97172.16;5004239;28;20123;-66
2021/04/13 02:13:19;;;;;;;21.02;11.02;;;;;;;6.27;77.46;97169.09;5001811;28;19917;-66
2021/04/13 02:16:06;;;;;;;38.37;18.83;;;;;;;6.32;77.28;97166.16;5003711;28;20125;-66
2021/04/13 02:18:42;;;;;;;42.55;28.02;;;;;;;6.31;77.13;97164.53;5002310;28;20447;-66
2021/04/13 02:21:14;;;;;;;20.80;13.65;;;;;;;6.30;77.44;97162.94;5018401;28;20042;-66
2021/04/13 02:23:50;;;;;;;20.08;12.23;;;;;;;3.87;77.47;96752.41;5019399;28;20029;-66
2021/04/13 02:26:16;;;;;;;15.13;10.68;;;;;;;5.65;76.61;97025.47;5018456;28;20069;-66
2021/04/13 02:28:43;;;;;;;13.57;8.32;;;;;;;6.22;77.11;97161.06;5004393;28;20429;-67
2021/04/13 02:31:12;;;;;;;16.30;9.85;;;;;;;5.47;77.20;97026.81;5003864;28;20037;-66
2021/04/13 02:33:42;;;;;;;17.90;10.88;;;;;;;6.33;76.38;97173.25;5016373;28;20036;-66
2021/04/13 02:36:30;;;;;;;17.50;8.73;;;;;;;5.38;76.30;97004.91;5023066;28;20041;-66
2021/04/13 02:38:56;;;;;;;12.60;8.05;;;;;;;6.28;75.88;97132.19;5023604;28;20466;-66
2021/04/13 02:41:41;;;;;;;15.88;8.48;;;;;;;6.29;77.55;97161.34;5023254;28;20521;-66
2021/04/13 02:44:11;;;;;;;11.85;6.80;;;;;;;5.82;76.81;97075.59;5023868;28;20033;-66
2021/04/13 02:46:37;;;;;;;16.38;9.57;;;;;;;6.37;76.86;97162.38;5021409;28;20443;-66
2021/04/13 02:49:12;;;;;;;34.50;17.70;;;;;;;6.50;75.15;97162.03;5022068;28;20025;-67
2021/04/13 02:51:55;;;;;;;215.63;93.05;;;;;;;6.26;74.70;97126.22;5023167;28;20069;-66
2021/04/13 02:54:24;;;;;;;73.03;34.28;;;;;;;4.89;75.37;96974.81;5022244;28;20072;-66
2021/04/13 02:56:58;;;;;;;63.08;30.27;;;;;;;6.31;75.31;97153.53;5025208;28;20499;-65
2021/04/13 02:59:31;;;;;;;100.70;44.47;;;;;;;6.26;76.16;97156.47;5027940;28;20030;-65
2021/04/13 03:02:08;;;;;;;89.55;41.25;;;;;;;6.32;76.28;97166.16;5027311;28;20049;-65
2021/04/13 03:04:42;;;;;;;94.53;42.95;;;;;;;5.55;75.48;97026.69;5027364;28;20644;-66
2021/04/13 03:07:13;;;;;;;22.55;13.73;;;;;;;6.17;76.43;97136.53;5025323;28;20208;-66
2021/04/13 03:09:40;;;;;;;16.67;10.23;;;;;;;6.25;78.00;97163.13;5027278;28;20036;-65
2021/04/13 03:12:08;;;;;;;19.23;11.50;;;;;;;6.21;79.41;97162.22;5026777;28;20037;-65
2021/04/13 03:14:37;;;;;;;16.02;9.88;;;;;;;6.33;77.26;97170.50;5027402;28;20526;-66
2021/04/13 03:17:08;;;;;;;13.43;9.63;;;;;;;6.28;78.31;97172.66;5027072;28;20053;-66
2021/04/13 03:19:34;;;;;;;19.42;11.55;;;;;;;6.37;77.13;97168.66;5026886;28;20029;-65
2021/04/13 03:22:04;;;;;;;23.02;12.88;;;;;;;6.39;76.80;97160.88;5024664;28;20037;-65
2021/04/13 03:24:40;;;;;;;18.90;10.80;;;;;;;6.36;77.48;97182.75;5026991;28;20029;-65
2021/04/13 03:27:11;;;;;;;18.48;11.13;;;;;;;6.27;77.38;97174.59;5024886;28;20099;-65
2021/04/13 03:30:02;;;;;;;21.90;12.75;;;;;;;6.44;76.39;97176.34;5027282;28;20038;-65
2021/04/13 03:32:31;;;;;;;17.17;11.48;;;;;;;6.46;76.28;97161.13;5016552;28;20603;-66
2021/04/13 03:34:58;;;;;;;15.07;9.82;;;;;;;6.45;76.56;97167.75;5006062;28;20030;-65
2021/04/13 03:37:25;;;;;;;14.52;8.48;;;;;;;6.44;75.86;97168.91;5006644;28;20065;-65
2021/04/13 03:39:51;;;;;;;15.77;8.68;;;;;;;6.54;75.18;97167.69;5006418;28;20050;-65
2021/04/13 03:42:21;;;;;;;19.08;10.63;;;;;;;6.53;75.16;97175.13;5006485;28;20077;-65
2021/04/13 03:44:50;;;;;;;21.77;12.70;;;;;;;6.24;75.51;97146.97;5007210;28;20025;-65
2021/04/13 03:47:22;;;;;;;17.38;11.57;;;;;;;6.50;75.93;97199.75;5021180;28;20152;-65
2021/04/13 03:49:49;;;;;;;33.15;10.40;;;;;;;5.69;80.99;97185.78;5006929;28;20493;-65
2021/04/13 03:52:21;;;;;;;17.75;9.27;;;;;;;5.05;84.75;97165.22;5021275;28;20034;-66
2021/04/13 03:54:47;;;;;;;15.43;8.90;;;;;;;5.08;85.42;97200.22;5006870;28;20524;-67
2021/04/13 03:57:13;;;;;;;23.80;9.63;;;;;;;5.47;85.25;97199.84;5006698;28;20127;-65
2021/04/13 03:59:43;;;;;;;22.50;10.93;;;;;;;5.62;84.06;97194.56;5007016;28;20030;-65
2021/04/13 04:02:10;;;;;;;27.70;13.73;;;;;;;5.85;82.79;97201.34;5021000;28;20259;-65
2021/04/13 04:04:38;;;;;;;78.63;30.23;;;;;;;6.03;81.53;97210.25;5006778;28;20530;-65
2021/04/13 04:07:33;;;;;;;49.40;21.27;;;;;;;6.14;79.47;97197.72;5005215;28;20041;-66
2021/04/13 04:09:58;;;;;;;23.30;13.05;;;;;;;5.75;78.82;97108.28;5021461;28;20417;-66
2021/04/13 04:12:27;;;;;;;17.33;10.85;;;;;;;6.40;78.26;97201.03;5006274;28;20042;-66
2021/04/13 04:15:05;;;;;;;27.00;14.18;;;;;;;6.60;78.03;97196.56;5006750;28;20083;-65
2021/04/13 04:17:33;;;;;;;23.08;14.73;;;;;;;6.18;77.52;97113.38;5021507;28;20453;-65
2021/04/13 04:20:06;;;;;;;28.40;18.05;;;;;;;6.89;76.74;97197.19;5006589;28;20029;-66
2021/04/13 04:22:46;;;;;;;26.38;14.20;;;;;;;6.93;76.27;97198.13;5020877;28;20484;-65
2021/04/13 04:25:18;;;;;;;23.20;13.02;;;;;;;7.08;75.81;97210.41;5005464;28;20036;-66
2021/04/13 04:27:45;;;;;;;24.13;11.88;;;;;;;7.31;74.48;97195.84;5006097;28;20029;-65
2021/04/13 04:30:29;;;;;;;28.20;14.45;;;;;;;6.89;74.04;97139.38;5005536;28;20037;-66
2021/04/13 04:32:56;;;;;;;39.83;24.55;;;;;;;7.12;72.99;97145.22;5012857;28;20480;-66
2021/04/13 04:35:34;;;;;;;34.65;21.52;;;;;;;7.58;73.53;97197.88;5025279;28;20534;-65
2021/04/13 04:38:10;;;;;;;25.70;14.15;;;;;;;7.59;71.72;97193.97;5025652;28;20080;-64
2021/04/13 04:40:51;;;;;;;24.58;15.45;;;;;;;6.97;72.94;97091.66;5023234;28;20057;-66
2021/04/13 04:43:20;;;;;;;23.17;13.13;;;;;;;5.92;72.18;96942.41;5023915;28;20116;-66
2021/04/13 04:45:47;;;;;;;24.05;16.05;;;;;;;7.79;72.28;97185.88;5025049;28;20036;-65
2021/04/13 04:48:28;;;;;;;21.70;13.50;;;;;;;7.67;73.14;97201.31;5025705;28;20901;-66
2021/04/13 04:50:57;;;;;;;35.60;20.60;;;;;;;7.74;72.46;97187.72;5024740;28;20445;-66
2021/04/13 04:53:24;;;;;;;73.88;34.58;;;;;;;8.04;71.95;97192.94;5025112;28;20485;-66
2021/04/13 04:55:51;;;;;;;51.30;23.80;;;;;;;8.02;71.14;97173.97;5024476;28;20033;-64
2021/04/13 04:58:18;;;;;;;26.90;14.77;;;;;;;8.31;70.66;97179.19;5025103;28;20033;-64
2021/04/13 05:00:43;;;;;;;27.23;14.93;;;;;;;8.49;69.97;97183.22;5025006;28;20064;-66
2021/04/13 05:03:08;;;;;;;26.27;13.93;;;;;;;8.80;68.10;97157.59;5026764;28;20472;-66
2021/04/13 05:05:34;;;;;;;23.13;15.07;;;;;;;8.90;67.03;97143.22;5024789;28;20417;-66
2021/04/13 05:07:59;;;;;;;25.27;15.75;;;;;;;9.15;66.79;97183.34;5023475;28;20064;-64
2021/04/13 05:10:25;;;;;;;20.10;13.02;;;;;;;9.19;66.88;97162.13;5024736;28;20195;-64
2021/04/13 05:12:50;;;;;;;22.88;13.10;;;;;;;9.14;65.78;97129.22;5024977;28;20068;-65
2021/04/13 05:15:16;;;;;;;20.70;12.85;;;;;;;9.65;65.27;97188.88;5024492;28;20050;-65
2021/04/13 05:17:41;;;;;;;19.40;13.57;;;;;;;9.80;64.83;97187.25;5024935;28;20116;-65
2021/04/13 05:20:07;;;;;;;24.67;14.63;;;;;;;9.87;64.67;97198.44;5021851;28;20527;-65
2021/04/13 05:22:32;;;;;;;26.70;14.27;;;;;;;9.87;65.05;97182.66;5024762;28;20091;-65
2021/04/13 05:24:58;;;;;;;19.42;14.05;;;;;;;10.02;64.45;97184.56;5025057;28;20037;-65
2021/04/13 05:27:24;;;;;;;109.70;44.50;;;;;;;10.13;64.29;97185.63;5024064;28;20040;-65
2021/04/13 05:29:49;;;;;;;24.75;12.88;;;;;;;10.31;63.61;97170.19;5024463;28;20037;-65
2021/04/13 05:32:15;;;;;;;21.42;11.25;;;;;;;10.17;63.43;97153.28;5024171;28;20128;-65
2021/04/13 05:34:40;;;;;;;21.27;9.68;;;;;;;9.96;62.94;97114.06;5024785;28;20038;-64
2021/04/13 05:37:06;;;;;;;21.85;9.93;;;;;;;10.17;63.17;97130.34;5022539;28;20653;-65
2021/04/13 05:39:31;;;;;;;14.57;10.40;;;;;;;10.47;62.19;97134.88;5024118;28;20115;-64
2021/04/13 05:41:59;;;;;;;20.85;12.93;;;;;;;10.00;61.92;97065.16;5022703;28;20029;-63
2021/04/13 05:44:25;;;;;;;18.15;11.95;;;;;;;10.69;62.47;97144.38;5024897;28;20033;-65
2021/04/13 05:46:52;;;;;;;31.00;15.68;;;;;;;10.81;62.63;97144.22;5024033;28;20095;-65
2021/04/13 05:49:18;;;;;;;36.30;21.15;;;;;;;10.65;61.76;97108.31;5024964;28;20112;-65
2021/04/13 05:51:43;;;;;;;30.08;20.45;;;;;;;11.15;59.75;97147.94;5022370;28;20037;-65
2021/04/13 05:54:09;;;;;;;30.50;17.80;;;;;;;11.21;60.53;97135.34;5024764;28;20385;-64
2021/04/13 05:56:39;;;;;;;26.60;17.40;;;;;;;11.46;59.86;97131.03;5024137;28;20052;-65
2021/04/13 05:59:08;;;;;;;27.38;16.67;;;;;;;9.35;58.13;96784.22;5022522;28;20120;-65
2021/04/13 06:01:34;;;;;;;37.17;25.13;;;;;;;11.85;57.93;97143.50;5012873;28;20168;-67
2021/04/13 06:04:01;;;;;;;82.90;46.50;;;;;;;11.99;56.40;97132.56;5020176;28;20041;-64
2021/04/13 06:06:27;;;;;;;46.60;28.65;;;;;;;11.35;56.15;96991.41;5022679;28;20412;-63
2021/04/13 06:08:52;;;;;;;30.60;22.63;;;;;;;12.40;55.69;97120.38;5023426;28;20033;-63
2021/04/13 06:11:27;;;;;;;77.60;51.38;;;;;;;9.34;54.62;96649.16;5022234;28;20030;-64
2021/04/13 06:13:56;;;;;;;30.90;23.95;;;;;;;12.07;54.55;97062.88;5022184;28;20029;-64
2021/04/13 06:16:22;;;;;;;8.68;6.22;;;;;;;11.55;56.79;97148.19;5023602;28;20029;-63
2021/04/13 06:18:48;;;;;;;14.40;9.05;;;;;;;11.58;58.22;97137.16;5021815;28;20061;-63
2021/04/13 06:21:14;;;;;;;26.70;11.45;;;;;;;11.14;59.99;97160.22;5022480;28;20108;-63
2021/04/13 06:23:39;;;;;;;16.67;10.55;;;;;;;10.49;62.20;97143.66;5022989;28;20056;-65
2021/04/13 06:26:05;;;;;;;14.82;9.23;;;;;;;10.09;63.13;97079.56;5022489;28;20033;-65
2021/04/13 06:28:30;;;;;;;16.63;10.43;;;;;;;10.21;62.22;97087.72;5024051;28;20037;-68
2021/04/13 06:30:56;;;;;;;12.35;9.30;;;;;;;10.58;62.23;97146.97;5021894;28;20099;-62
2021/04/13 06:33:22;;;;;;;15.82;10.30;;;;;;;10.53;63.25;97138.97;5023355;28;20039;-65
2021/04/13 06:35:47;;;;;;;15.27;7.85;;;;;;;10.77;62.28;97143.34;5022935;28;20045;-65
2021/04/13 06:38:18;;;;;;;15.38;8.07;;;;;;;11.11;61.14;97152.63;5022771;28;20235;-66
2021/04/13 06:41:05;;;;;;;9.55;6.68;;;;;;;11.46;58.52;97128.25;5022073;28;20057;-65
2021/04/13 06:44:06;;;;;;;13.65;8.02;;;;;;;11.80;57.50;97129.94;5019869;28;20112;-62
2021/04/13 06:46:41;;;;;;;11.45;7.15;;;;;;;11.71;55.91;97127.44;5007520;28;20042;-62
2021/04/13 06:49:15;;;;;;;11.30;6.97;;;;;;;11.73;57.16;97133.41;5009112;28;20049;-65
2021/04/13 06:52:19;;;;;;;10.35;6.88;;;;;;;11.41;56.95;97070.31;5026915;28;20628;-67
2021/04/13 06:55:14;;;;;;;14.40;6.40;;;;;;;12.54;55.72;97128.84;5017489;28;20033;-66
2021/04/13 06:58:11;;;;;;;18.42;8.02;;;;;;;13.02;54.36;97135.31;5018600;28;20037;-67
2021/04/13 07:00:47;;;;;;;14.38;7.40;;;;;;;13.15;54.23;97129.06;5017603;28;20563;-67
2021/04/13 07:03:22;;;;;;;13.00;6.63;;;;;;;13.41;54.11;97126.09;5021277;28;20477;-67
2021/04/13 07:05:56;;;;;;;9.68;6.75;;;;;;;14.06;52.45;97122.50;5020666;28;20084;-68
2021/04/13 07:08:33;;;;;;;11.25;7.05;;;;;;;13.15;53.03;97028.94;5022270;28;20645;-64
2021/04/13 07:11:08;;;;;;;13.13;8.15;;;;;;;13.92;53.04;97061.97;5021707;28;20033;-67
2021/04/13 07:14:08;;;;;;;8.32;6.55;;;;;;;14.10;53.43;97117.75;5022260;28;20033;-68
2021/04/13 07:16:46;;;;;;;12.07;7.28;;;;;;;13.67;54.53;97017.31;5018588;28;20038;-63
2021/04/13 07:19:24;;;;;;;9.43;6.35;;;;;;;14.24;53.37;97089.97;5013651;28;20042;-66
2021/04/13 07:21:59;;;;;;;10.98;7.40;;;;;;;13.30;53.83;96958.31;5018104;28;20041;-67
2021/04/13 07:24:42;;;;;;;9.20;7.25;;;;;;;13.62;55.82;97098.41;5038251;28;20052;-68
2021/04/13 07:27:14;;;;;;;12.07;8.05;;;;;;;14.06;54.04;97105.78;5013020;28;20053;-67
2021/04/13 07:29:51;;;;;;;11.95;7.43;;;;;;;13.96;52.95;97028.59;5012540;28;20523;-66
2021/04/13 07:32:18;;;;;;;12.00;7.53;;;;;;;14.56;52.47;97096.44;5021534;28;20083;-65
2021/04/13 07:34:46;;;;;;;11.32;7.20;;;;;;;14.10;52.16;97101.06;5023286;28;20033;-63
2021/04/13 07:37:29;;;;;;;10.07;6.65;;;;;;;14.23;51.76;97046.53;5020164;28;20041;-67
2021/04/13 07:39:56;;;;;;;9.80;6.17;;;;;;;12.33;51.09;96742.53;5020249;28;20065;-64
2021/04/13 07:42:26;;;;;;;8.15;6.45;;;;;;;15.03;50.49;97093.34;5022604;28;20120;-68
2021/04/13 07:45:00;;;;;;;11.07;7.20;;;;;;;14.69;50.92;97084.53;5026173;28;20030;-65
2021/04/13 07:47:43;;;;;;;12.40;6.22;;;;;;;15.19;49.33;97088.94;5025201;28;20029;-66
2021/04/13 07:50:09;;;;;;;10.67;6.87;;;;;;;14.84;49.49;97007.25;5025035;28;20033;-67
2021/04/13 07:52:34;;;;;;;9.88;7.07;;;;;;;15.29;49.85;97089.31;5025150;28;20531;-64
2021/04/13 07:55:18;;;;;;;10.95;7.40;;;;;;;16.05;47.98;97082.81;5026270;28;20454;-68
2021/04/13 07:58:19;;;;;;;10.43;7.60;;;;;;;16.13;46.31;97028.47;5039803;28;20041;-66
2021/04/13 08:00:51;;;;;;;12.35;7.88;;;;;;;16.75;46.25;97087.28;5023311;28;20068;-64
2021/04/13 08:03:26;;;;;;;13.35;8.00;;;;;;;16.66;46.65;97072.16;5022484;28;20031;-63
2021/04/13 08:05:58;;;;;;;13.80;8.10;;;;;;;16.03;46.29;96945.50;5025217;28;20115;-68
2021/04/13 08:08:34;;;;;;;16.75;7.40;;;;;;;17.06;46.41;97079.84;5024574;28;20857;-67
2021/04/13 08:11:08;;;;;;;12.73;7.18;;;;;;;17.32;45.39;97082.03;5025475;28;20073;-71
2021/04/13 08:13:34;;;;;;;11.27;7.53;;;;;;;17.32;45.18;97076.44;5039521;28;20029;-73
2021/04/13 08:16:00;;;;;;;12.60;7.05;;;;;;;16.98;45.45;97027.94;5024938;28;20045;-73
2021/04/13 08:18:34;;;;;;;13.50;7.57;;;;;;;17.43;45.14;97060.34;5025022;28;20508;-72
2021/04/13 08:21:12;;;;;;;10.20;7.13;;;;;;;17.56;44.02;97058.66;5021674;28;20037;-69
2021/04/13 08:23:39;;;;;;;7.50;6.75;;;;;;;17.54;43.38;97010.66;5024996;28;20072;-68
2021/04/13 08:26:23;;;;;;;10.70;7.55;;;;;;;18.15;42.62;97057.16;5024051;28;20484;-68
2021/04/13 08:29:09;;;;;;;10.90;8.10;;;;;;;18.43;42.24;97051.22;5020914;28;20472;-69
2021/04/13 08:35:13;;;;;;;11.75;7.30;;;;;;;18.50;41.69;97041.91;5022735;28;20072;-65
2021/04/13 08:38:00;;;;;;;7.72;6.78;;;;;;;18.61;41.88;97034.94;5022983;28;20029;-65
2021/04/13 08:41:03;;;;;;;9.10;7.10;;;;;;;18.61;42.64;97023.72;5029849;28;20057;-65
2021/04/13 08:44:16;;;;;;;8.23;7.40;;;;;;;19.33;40.58;97025.75;5025343;28;20037;-66
2021/04/13 08:47:02;;;;;;;12.77;7.40;;;;;;;18.77;40.30;96886.34;5019728;28;20045;-70
2021/04/13 08:49:45;;;;;;;12.10;7.95;;;;;;;18.30;42.92;97024.94;5025094;28;20060;-65
2021/04/13 08:52:23;;;;;;;8.73;6.72;;;;;;;18.28;43.14;97016.13;5024114;28;20041;-66
2021/04/13 08:55:02;;;;;;;9.15;6.68;;;;;;;17.82;43.62;97013.94;5022051;28;20539;-69
2021/04/13 08:57:33;;;;;;;9.20;7.07;;;;;;;17.91;43.18;96954.53;5023632;28;20091;-65
2021/04/13 09:00:04;;;;;;;7.82;6.38;;;;;;;17.54;44.50;96988.22;5022852;28;20463;-67
2021/04/13 09:02:38;;;;;;;9.77;6.55;;;;;;;18.15;43.42;97001.09;5023468;28;20037;-66
2021/04/13 09:05:06;;;;;;;9.55;6.57;;;;;;;18.68;42.83;96995.56;5022939;28;20064;-64
2021/04/13 09:07:47;;;;;;;9.45;6.50;;;;;;;18.68;42.14;96992.75;5025041;28;20096;-62
2021/04/13 09:10:37;;;;;;;10.70;6.00;;;;;;;19.01;41.99;96991.00;5023683;28;20048;-62
2021/04/13 09:13:20;;;;;;;7.00;6.18;;;;;;;19.07;41.65;96984.47;5023760;28;20463;-62
2021/04/13 09:16:07;;;;;;;12.27;6.80;;;;;;;19.62;40.24;96980.31;5024812;28;20472;-64
2021/04/13 09:18:44;;;;;;;11.60;7.18;;;;;;;20.02;39.14;96973.44;5023507;28;20168;-62
2021/04/13 09:21:28;;;;;;;10.10;6.70;;;;;;;20.41;38.70;96979.03;5024612;28;20488;-62
2021/04/13 09:24:19;;;;;;;8.30;6.88;;;;;;;21.01;38.00;96972.03;5023512;28;20535;-61
2021/04/13 09:26:57;;;;;;;7.70;6.35;;;;;;;20.35;39.07;96964.72;5022878;28;20049;-62
2021/04/13 09:29:47;;;;;;;10.77;7.00;;;;;;;20.27;39.02;96965.28;5024955;28;20408;-62
2021/04/13 09:32:26;;;;;;;17.60;10.85;;;;;;;19.66;40.62;96964.16;5024585;28;20087;-62
2021/04/13 09:35:20;;;;;;;18.63;11.70;;;;;;;20.45;40.30;96954.44;5024848;28;20587;-62
2021/04/13 09:38:00;;;;;;;8.40;7.68;;;;;;;19.05;41.70;96947.59;5024701;28;20047;-62
2021/04/13 09:40:36;;;;;;;7.85;7.07;;;;;;;19.13;41.49;96948.25;5022394;28;20578;-62
2021/04/13 09:43:08;;;;;;;9.00;7.47;;;;;;;18.92;42.11;96946.63;5022744;28;20034;-62
2021/04/13 09:46:04;;;;;;;9.07;7.40;;;;;;;19.74;40.35;96946.72;5024001;28;20037;-64
2021/04/13 09:48:30;;;;;;;12.07;8.80;;;;;;;19.75;40.12;96936.25;5024421;28;20056;-62
2021/04/13 09:51:18;;;;;;;7.93;7.15;;;;;;;20.02;39.47;96936.88;5022739;28;20045;-62
2021/04/13 09:53:49;;;;;;;10.00;7.57;;;;;;;19.68;39.58;96940.00;5022851;28;20037;-63
2021/04/13 09:57:05;;;;;;;8.18;6.78;;;;;;;20.51;38.46;96935.78;5023576;28;20037;-61
2021/04/13 09:59:52;;;;;;;11.32;7.05;;;;;;;20.83;37.90;96987.28;5022349;28;20037;-61
2021/04/13 10:02:30;;;;;;;8.68;7.65;;;;;;;21.08;37.18;96930.38;5023362;28;20328;-63
2021/04/13 10:05:00;;;;;;;7.35;6.68;;;;;;;20.83;37.47;96905.63;5021855;28;20033;-61
2021/04/13 10:07:29;;;;;;;7.57;6.72;;;;;;;20.53;38.33;96924.91;5022046;28;20041;-61
2021/04/13 10:09:58;;;;;;;9.70;7.55;;;;;;;20.96;37.73;96900.09;5022572;28;20034;-60
2021/04/13 10:13:02;;;;;;;9.43;7.57;;;;;;;20.13;39.24;96914.94;5023371;28;20064;-62
2021/04/13 10:15:45;;;;;;;11.43;7.20;;;;;;;19.69;40.09;96907.88;5000580;28;20069;-61
2021/04/13 10:18:19;;;;;;;10.17;7.67;;;;;;;20.74;38.93;96904.66;5000892;28;20041;-61
2021/04/13 10:21:00;;;;;;;8.15;6.75;;;;;;;20.77;37.98;96837.00;5014912;28;20132;-62
2021/04/13 10:24:00;;;;;;;12.90;7.45;;;;;;;21.33;37.42;96902.31;5024166;28;20593;-61
2021/04/13 10:26:54;;;;;;;10.10;7.90;;;;;;;21.72;36.72;96896.38;5020229;28;20057;-63
2021/04/13 10:30:14;;;;;;;9.30;6.70;;;;;;;21.98;35.96;96903.69;5023849;28;20038;-61
2021/04/13 10:32:49;;;;;;;9.65;6.65;;;;;;;22.34;35.26;96895.72;5000526;28;20052;-62
2021/04/13 10:35:42;;;;;;;9.60;6.90;;;;;;;22.48;35.53;96895.25;5019500;28;20061;-63
2021/04/13 10:38:45;;;;;;;10.93;8.63;;;;;;;20.98;38.49;96886.38;5022090;28;20432;-62
2021/04/13 10:41:28;;;;;;;11.15;8.10;;;;;;;21.37;36.94;96886.09;5022882;28;20055;-62
2021/04/13 10:44:32;;;;;;;10.70;6.95;;;;;;;21.48;36.77;96889.41;5022238;28;20539;-62
2021/04/13 10:47:16;;;;;;;12.05;7.85;;;;;;;21.34;36.63;96887.00;5021478;28;20095;-61
2021/04/13 10:49:54;;;;;;;8.57;7.60;;;;;;;21.38;37.22;96884.06;5023540;28;20037;-62
2021/04/13 10:52:31;;;;;;;11.38;8.10;;;;;;;20.49;38.39;96884.78;5021258;28;20061;-62
2021/04/13 10:55:14;;;;;;;10.75;7.90;;;;;;;20.72;38.56;96881.81;5024144;28;20041;-61
2021/04/13 10:58:17;;;;;;;8.52;7.50;;;;;;;19.69;40.28;96879.78;5023427;28;20125;-61
2021/04/13 11:01:10;;;;;;;9.48;7.30;;;;;;;19.43;40.98;96884.31;5021181;28;20049;-61
2021/04/13 11:04:12;;;;;;;10.52;7.35;;;;;;;19.42;41.62;96874.31;5023680;28;20033;-61
2021/04/13 11:07:00;;;;;;;11.25;8.02;;;;;;;19.44;40.98;96879.50;5021437;28;20069;-61
2021/04/13 11:09:38;;;;;;;8.80;7.22;;;;;;;19.40;40.86;96882.38;5018595;28;20045;-60
2021/04/13 11:12:09;;;;;;;8.98;6.85;;;;;;;19.58;40.94;96878.41;5022823;28;20041;-62
2021/04/13 11:14:50;;;;;;;12.80;7.57;;;;;;;19.97;40.50;96878.34;5023240;28;20060;-62
2021/04/13 11:17:56;;;;;;;9.82;6.70;;;;;;;19.19;41.55;96868.72;5023587;28;20049;-61
2021/04/13 11:20:39;;;;;;;11.00;6.72;;;;;;;19.29;42.34;96881.00;5026561;28;20436;-61
2021/04/13 11:23:23;;;;;;;11.93;6.65;;;;;;;18.59;42.80;96873.84;5025998;28;20090;-62
2021/04/13 11:26:30;;;;;;;8.13;7.07;;;;;;;18.79;42.70;96871.88;5026225;28;20041;-60
2021/04/13 11:29:23;;;;;;;10.25;7.88;;;;;;;18.27;43.08;96874.34;5027003;28;20057;-61
2021/04/13 11:32:07;;;;;;;10.77;7.28;;;;;;;18.00;43.04;96865.91;5024364;28;20088;-61
2021/04/13 11:35:11;;;;;;;12.32;7.65;;;;;;;18.37;42.72;96872.59;5026676;28;20202;-61
2021/04/13 11:37:57;;;;;;;13.33;7.10;;;;;;;18.60;42.38;96864.22;5027097;28;20049;-61
2021/04/13 11:40:38;;;;;;;8.02;6.78;;;;;;;18.71;41.66;96870.44;5026144;28;20057;-61
2021/04/13 11:43:05;;;;;;;9.15;6.68;;;;;;;18.83;41.69;96867.78;5041985;28;20102;-61
2021/04/13 11:45:55;;;;;;;10.13;7.13;;;;;;;19.24;40.68;96873.81;5026262;28;20037;-62
2021/04/13 11:48:29;;;;;;;10.95;8.02;;;;;;;19.34;40.34;96869.25;5026805;28;20034;-61
2021/04/13 11:51:13;;;;;;;13.57;8.63;;;;;;;19.56;39.95;96859.16;5025794;28;20041;-62
2021/04/13 11:53:42;;;;;;;8.82;7.38;;;;;;;19.27;39.98;96819.59;5026620;28;20492;-62
2021/04/13 11:56:23;;;;;;;10.25;8.75;;;;;;;19.21;40.49;96804.47;5041706;28;20073;-63
2021/04/13 11:59:15;;;;;;;10.27;7.47;;;;;;;19.17;41.29;96864.75;5026715;28;20589;-62
2021/04/13 12:01:42;;;;;;;11.30;7.35;;;;;;;19.05;41.75;96852.13;5026369;28;20038;-61
2021/04/13 12:04:14;;;;;;;10.93;7.15;;;;;;;18.83;42.37;96862.19;5041111;28;20033;-61
2021/04/13 12:06:53;;;;;;;9.60;7.75;;;;;;;18.66;42.49;96829.63;5040998;28;20116;-61
2021/04/13 12:09:41;;;;;;;6.90;6.28;;;;;;;18.89;42.57;96863.25;5026599;28;20045;-62
2021/04/13 12:12:34;;;;;;;12.63;7.65;;;;;;;18.78;42.71;96873.88;5025858;28;20041;-62
2021/04/13 12:15:03;;;;;;;18.40;10.80;;;;;;;18.85;42.91;96867.38;5026973;28;20106;-62
2021/04/13 12:17:35;;;;;;;10.23;7.22;;;;;;;18.71;42.67;96854.38;5025737;28;20037;-62
2021/04/13 12:23:06;;;;;;;10.20;7.55;;;;;;;17.68;48.16;96878.81;5026102;28;20041;-62